createdAt,value
2023-04-26T00:01:30.790Z,100.00
2023-04-26T00:03:57.689Z,100.00
2023-04-26T00:06:24.265Z,100.00
2023-04-26T00:08:51.389Z,100.00
2023-04-26T00:11:18.009Z,100.00
2023-04-26T00:13:44.532Z,100.00
2023-04-26T00:16:10.921Z,100.00
2023-04-26T00:18:37.721Z,100.00
2023-04-26T00:21:04.188Z,100.00
2023-04-26T00:23:32.453Z,100.00
2023-04-26T00:25:59.227Z,100.00
2023-04-26T00:28:25.688Z,100.00
2023-04-26T00:30:52.196Z,100.00
2023-04-26T00:33:18.573Z,100.00
2023-04-26T00:35:45.013Z,100.00
2023-04-26T00:38:11.408Z,100.00
2023-04-26T00:40:37.971Z,100.00
2023-04-26T00:43:06.107Z,100.00
2023-04-26T00:45:32.920Z,100.00
2023-04-26T00:48:02.512Z,100.00
2023-04-26T00:50:30.665Z,100.00
2023-04-26T00:53:01.676Z,100.00
2023-04-26T00:55:28.316Z,100.00
2023-04-26T00:57:56.078Z,100.00
2023-04-26T01:00:22.745Z,100.00
2023-04-26T01:02:52.360Z,100.00
2023-04-26T01:05:19.466Z,100.00
2023-04-26T01:07:46.440Z,100.00
2023-04-26T01:10:12.994Z,100.00
2023-04-26T01:12:39.629Z,100.00
2023-04-26T01:15:06.909Z,100.00
2023-04-26T01:17:33.851Z,100.00
2023-04-26T01:20:00.944Z,100.00
2023-04-26T01:22:28.514Z,100.00
2023-04-26T01:24:58.067Z,100.00
2023-04-26T01:27:24.560Z,100.00
2023-04-26T01:29:51.899Z,100.00
2023-04-26T01:32:19.076Z,100.00
2023-04-26T01:34:46.537Z,100.00
2023-04-26T01:37:13.667Z,100.00
2023-04-26T01:39:40.522Z,100.00
2023-04-26T01:42:08.136Z,100.00
2023-04-26T01:44:35.059Z,100.00
2023-04-26T01:47:02.156Z,100.00
2023-04-26T01:49:29.262Z,100.00
2023-04-26T01:51:55.829Z,100.00
2023-04-26T01:54:22.744Z,100.00
2023-04-26T01:56:49.136Z,100.00
2023-04-26T01:59:15.643Z,100.00
2023-04-26T02:01:46.208Z,100.00
2023-04-26T02:04:12.961Z,100.00
2023-04-26T02:06:39.538Z,100.00
2023-04-26T02:09:06.207Z,100.00
2023-04-26T02:11:32.593Z,100.00
2023-04-26T02:13:59.178Z,100.00
2023-04-26T02:16:27.440Z,100.00
2023-04-26T02:18:54.932Z,100.00
2023-04-26T02:21:23.061Z,100.00
2023-04-26T02:23:49.596Z,100.00
2023-04-26T02:26:16.168Z,100.00
2023-04-26T02:28:43.162Z,100.00
2023-04-26T02:31:09.878Z,100.00
2023-04-26T02:33:36.499Z,100.00
2023-04-26T02:36:05.045Z,100.00
2023-04-26T02:38:35.314Z,100.00
2023-04-26T02:41:03.164Z,100.00
2023-04-26T02:43:30.403Z,100.00
2023-04-26T02:45:58.898Z,100.00
2023-04-26T02:48:25.612Z,100.00
2023-04-26T02:50:52.887Z,100.00
2023-04-26T02:53:19.507Z,100.00
2023-04-26T02:55:47.412Z,100.00
2023-04-26T02:58:14.012Z,100.00
2023-04-26T03:00:46.701Z,100.00
2023-04-26T03:03:13.616Z,100.00
2023-04-26T03:05:42.029Z,100.00
2023-04-26T03:08:09.059Z,100.00
2023-04-26T03:10:35.639Z,100.00
2023-04-26T03:13:04.231Z,100.00
2023-04-26T03:15:30.759Z,100.00
2023-04-26T03:17:58.594Z,100.00
2023-04-26T03:20:25.670Z,100.00
2023-04-26T03:22:52.114Z,100.00
2023-04-26T03:25:18.746Z,100.00
2023-04-26T03:27:45.365Z,100.00
2023-04-26T03:30:13.575Z,100.00
2023-04-26T03:32:40.019Z,100.00
2023-04-26T03:35:07.278Z,100.00
2023-04-26T03:37:34.031Z,100.00
2023-04-26T03:40:00.566Z,100.00
2023-04-26T03:42:27.047Z,100.00
2023-04-26T03:44:53.816Z,100.00
2023-04-26T03:47:20.570Z,100.00
2023-04-26T03:49:47.286Z,100.00
2023-04-26T03:52:13.965Z,100.00
2023-04-26T03:54:40.822Z,100.00
2023-04-26T03:57:07.438Z,100.00
2023-04-26T03:59:34.393Z,100.00
2023-04-26T04:02:01.164Z,100.00
2023-04-26T04:04:27.738Z,100.00
2023-04-26T04:06:54.799Z,100.00
2023-04-26T04:09:21.289Z,100.00
2023-04-26T04:11:48.034Z,100.00
2023-04-26T04:14:14.408Z,100.00
2023-04-26T04:16:41.277Z,100.00
2023-04-26T04:19:08.033Z,100.00
2023-04-26T04:21:34.937Z,100.00
2023-04-26T04:24:01.439Z,100.00
2023-04-26T04:26:30.947Z,100.00
2023-04-26T04:28:58.684Z,100.00
2023-04-26T04:31:25.227Z,100.00
2023-04-26T04:33:51.892Z,100.00
2023-04-26T04:36:18.448Z,100.00
2023-04-26T04:38:45.250Z,100.00
2023-04-26T04:41:12.224Z,100.00
2023-04-26T04:43:39.182Z,100.00
2023-04-26T04:46:05.916Z,100.00
2023-04-26T04:48:33.508Z,100.00
2023-04-26T04:51:00.066Z,100.00
2023-04-26T04:53:26.933Z,100.00
2023-04-26T04:55:53.546Z,100.00
2023-04-26T04:58:19.984Z,100.00
2023-04-26T05:00:46.772Z,100.00
2023-04-26T05:03:15.645Z,100.00
2023-04-26T05:05:42.382Z,100.00
2023-04-26T05:08:08.956Z,100.00
2023-04-26T05:10:36.111Z,100.00
2023-04-26T05:13:02.518Z,100.00
2023-04-26T05:15:29.744Z,100.00
2023-04-26T05:17:56.274Z,100.00
2023-04-26T05:20:22.835Z,100.00
2023-04-26T05:22:49.217Z,95.30
2023-04-26T05:25:17.072Z,90.36
2023-04-26T05:27:45.873Z,80.57
2023-04-26T05:30:12.863Z,81.71
2023-04-26T05:32:39.865Z,77.61
2023-04-26T05:35:06.664Z,78.19
2023-04-26T05:37:33.263Z,91.65
2023-04-26T05:40:00.471Z,100.00
2023-04-26T05:42:27.046Z,100.00
2023-04-26T05:44:59.433Z,100.00
2023-04-26T05:47:26.315Z,100.00
2023-04-26T05:49:53.433Z,100.00
2023-04-26T05:52:19.857Z,100.00
2023-04-26T05:54:46.401Z,100.00
2023-04-26T05:57:13.011Z,100.00
2023-04-26T05:59:40.166Z,100.00
2023-04-26T06:02:07.043Z,100.00
2023-04-26T06:04:34.192Z,100.00
2023-04-26T06:07:01.351Z,100.00
2023-04-26T06:09:27.899Z,100.00
2023-04-26T06:11:54.368Z,100.00
2023-04-26T06:14:29.829Z,100.00
2023-04-26T06:16:57.642Z,100.00
2023-04-26T06:19:24.120Z,100.00
2023-04-26T06:21:52.145Z,100.00
2023-04-26T06:24:18.591Z,100.00
2023-04-26T06:26:45.089Z,100.00
2023-04-26T06:29:11.718Z,100.00
2023-04-26T06:31:39.297Z,100.00
2023-04-26T06:34:06.418Z,100.00
2023-04-26T06:36:32.977Z,100.00
2023-04-26T06:38:59.681Z,100.00
2023-04-26T06:41:26.057Z,100.00
2023-04-26T06:43:53.066Z,100.00
2023-04-26T06:46:19.809Z,100.00
2023-04-26T06:48:47.429Z,100.00
2023-04-26T06:51:13.878Z,100.00
2023-04-26T06:53:41.461Z,100.00
2023-04-26T06:56:07.948Z,100.00
2023-04-26T06:58:34.650Z,100.00
2023-04-26T07:01:01.249Z,100.00
2023-04-26T07:03:27.903Z,100.00
2023-04-26T07:05:56.440Z,100.00
2023-04-26T07:08:22.853Z,100.00
2023-04-26T07:10:51.678Z,100.00
2023-04-26T07:13:18.107Z,100.00
2023-04-26T07:15:44.726Z,100.00
2023-04-26T07:18:11.351Z,100.00
2023-04-26T07:20:37.943Z,100.00
2023-04-26T07:23:04.439Z,100.00
2023-04-26T07:25:31.022Z,100.00
2023-04-26T07:27:57.614Z,100.00
2023-04-26T07:30:24.212Z,100.00
2023-04-26T07:32:50.893Z,100.00
2023-04-26T07:35:17.704Z,100.00
2023-04-26T07:37:44.777Z,100.00
2023-04-26T07:40:11.946Z,100.00
2023-04-26T07:42:39.493Z,100.00
2023-04-26T07:45:06.868Z,100.00
2023-04-26T07:47:33.368Z,100.00
2023-04-26T07:49:59.923Z,100.00
2023-04-26T07:52:26.356Z,100.00
2023-04-26T07:54:52.755Z,100.00
2023-04-26T07:57:20.363Z,100.00
2023-04-26T07:59:46.789Z,100.00
2023-04-26T08:02:13.607Z,100.00
2023-04-26T08:04:48.275Z,100.00
2023-04-26T08:07:15.424Z,100.00
2023-04-26T08:09:42.347Z,100.00
2023-04-26T08:12:08.959Z,100.00
2023-04-26T08:14:36.146Z,100.00
2023-04-26T08:17:02.591Z,100.00
2023-04-26T08:19:32.615Z,100.00
2023-04-26T08:21:59.304Z,100.00
2023-04-26T08:24:25.869Z,100.00
2023-04-26T08:26:52.276Z,100.00
2023-04-26T08:29:19.346Z,100.00
2023-04-26T08:31:45.970Z,100.00
2023-04-26T08:34:13.799Z,100.00
2023-04-26T08:36:41.796Z,100.00
2023-04-26T08:39:09.680Z,100.00
2023-04-26T08:41:37.996Z,100.00
2023-04-26T08:44:08.772Z,100.00
2023-04-26T08:46:47.473Z,100.00
2023-04-26T08:49:27.149Z,100.00
2023-04-26T08:51:55.041Z,100.00
2023-04-26T08:54:22.337Z,100.00
2023-04-26T08:56:49.250Z,100.00
2023-04-26T08:59:15.952Z,100.00
2023-04-26T09:01:43.941Z,100.00
2023-04-26T09:04:11.782Z,100.00
2023-04-26T09:06:39.776Z,100.00
2023-04-26T09:09:09.298Z,100.00
2023-04-26T09:11:55.267Z,100.00
2023-04-26T09:14:22.357Z,100.00
2023-04-26T09:16:48.795Z,100.00
2023-04-26T09:19:15.557Z,96.80
2023-04-26T09:21:46.992Z,100.00
2023-04-26T09:24:14.088Z,97.93
2023-04-26T09:26:42.103Z,88.95
2023-04-26T09:29:19.045Z,88.36
2023-04-26T09:31:49.839Z,74.66
2023-04-26T09:34:16.923Z,70.24
2023-04-26T09:36:55.649Z,63.64
2023-04-26T09:39:32.846Z,83.64
2023-04-26T09:41:59.689Z,89.06
2023-04-26T09:44:26.336Z,83.11
2023-04-26T09:47:09.468Z,82.14
2023-04-26T09:49:51.690Z,82.87
2023-04-26T09:52:19.249Z,85.32
2023-04-26T09:54:53.454Z,90.71
2023-04-26T09:57:22.158Z,95.59
2023-04-26T09:59:54.805Z,100.00
2023-04-26T10:02:27.557Z,100.00
2023-04-26T10:04:56.525Z,100.00
2023-04-26T10:07:25.861Z,95.89
2023-04-26T10:09:54.150Z,79.47
2023-04-26T10:12:20.771Z,93.72
2023-04-26T10:14:48.468Z,96.55
2023-04-26T10:17:14.977Z,95.72
2023-04-26T10:19:46.595Z,91.06
2023-04-26T10:22:25.758Z,87.79
2023-04-26T10:24:54.075Z,87.35
2023-04-26T10:27:43.430Z,88.55
2023-04-26T10:30:15.835Z,90.49
2023-04-26T10:33:00.852Z,86.98
2023-04-26T10:35:29.251Z,100.00
2023-04-26T10:38:01.613Z,100.00
2023-04-26T10:40:29.192Z,83.21
2023-04-26T10:43:19.543Z,78.46
2023-04-26T10:45:47.765Z,75.11
2023-04-26T10:48:22.763Z,73.70
2023-04-26T10:51:01.669Z,72.49
2023-04-26T10:53:33.388Z,76.59
2023-04-26T10:55:59.843Z,77.21
2023-04-26T10:58:28.122Z,78.12
2023-04-26T11:01:18.964Z,77.23
2023-04-26T11:03:59.319Z,80.69
2023-04-26T11:06:28.921Z,76.36
2023-04-26T11:08:56.123Z,73.46
2023-04-26T11:11:26.366Z,68.25
2023-04-26T11:13:52.810Z,75.88
2023-04-26T11:16:19.644Z,81.76
2023-04-26T11:18:47.599Z,78.35
2023-04-26T11:21:18.218Z,76.53
2023-04-26T11:23:53.816Z,75.12
2023-04-26T11:26:20.283Z,72.72
2023-04-26T11:28:49.145Z,67.03
2023-04-26T11:31:15.995Z,59.05
2023-04-26T11:33:42.456Z,55.29
2023-04-26T11:36:09.450Z,55.98
2023-04-26T11:38:38.231Z,57.37
2023-04-26T11:41:04.741Z,57.86
2023-04-26T11:43:39.012Z,61.86
2023-04-26T11:46:07.776Z,60.73
2023-04-26T11:48:37.086Z,60.69
2023-04-26T11:51:05.028Z,69.50
2023-04-26T11:53:39.610Z,68.35
2023-04-26T11:56:21.886Z,60.57
2023-04-26T11:58:50.621Z,52.76
2023-04-26T12:01:28.331Z,52.03
2023-04-26T12:03:57.352Z,60.08
2023-04-26T12:06:43.349Z,53.67
2023-04-26T12:09:11.254Z,53.09
2023-04-26T12:11:38.588Z,54.85
2023-04-26T12:14:05.902Z,54.64
2023-04-26T12:16:32.707Z,52.85
2023-04-26T12:18:59.211Z,54.30
2023-04-26T12:21:28.863Z,51.68
2023-04-26T12:23:57.012Z,55.31
2023-04-26T12:26:42.819Z,54.33
2023-04-26T12:29:09.365Z,54.36
2023-04-26T12:31:37.362Z,60.60
2023-04-26T12:34:03.863Z,57.54
2023-04-26T12:36:31.592Z,54.28
2023-04-26T12:38:58.064Z,59.85
2023-04-26T12:41:25.128Z,60.29
2023-04-26T12:43:51.570Z,64.29
2023-04-26T12:46:18.114Z,55.47
2023-04-26T12:48:44.728Z,55.58
2023-04-26T12:51:11.115Z,49.30
2023-04-26T12:53:38.120Z,45.55
2023-04-26T12:56:04.834Z,45.83
2023-04-26T12:58:31.878Z,47.28
2023-04-26T13:00:58.269Z,46.86
2023-04-26T13:03:25.100Z,46.15
2023-04-26T13:05:52.519Z,49.79
2023-04-26T13:08:18.977Z,49.88
2023-04-26T13:10:46.014Z,48.72
2023-04-26T13:13:12.954Z,55.62
2023-04-26T13:15:39.842Z,51.32
2023-04-26T13:18:06.422Z,46.59
2023-04-26T13:20:33.005Z,48.94
2023-04-26T13:22:59.442Z,49.50
2023-04-26T13:25:25.994Z,48.30
2023-04-26T13:27:54.623Z,47.44
2023-04-26T13:30:21.249Z,46.87
2023-04-26T13:32:48.473Z,46.85
2023-04-26T13:35:15.175Z,49.46
2023-04-26T13:37:42.295Z,45.81
2023-04-26T13:40:11.158Z,48.92
2023-04-26T13:42:38.360Z,45.82
2023-04-26T13:45:10.251Z,47.21
2023-04-26T13:47:37.146Z,48.12
2023-04-26T13:50:04.512Z,51.84
2023-04-26T13:52:33.098Z,51.16
2023-04-26T13:55:00.238Z,51.47
2023-04-26T13:57:26.747Z,46.33
2023-04-26T13:59:53.112Z,45.92
2023-04-26T14:02:19.826Z,47.50
2023-04-26T14:04:46.505Z,46.69
2023-04-26T14:07:13.229Z,45.55
2023-04-26T14:09:39.632Z,43.61
2023-04-26T14:12:08.560Z,46.21
2023-04-26T14:14:36.062Z,44.87
2023-04-26T14:17:03.773Z,48.58
2023-04-26T14:19:30.482Z,46.34
2023-04-26T14:21:56.987Z,49.32
2023-04-26T14:24:23.809Z,46.91
2023-04-26T14:26:50.200Z,46.44
2023-04-26T14:29:16.644Z,47.62
2023-04-26T14:31:43.075Z,46.34
2023-04-26T14:34:10.165Z,47.09
2023-04-26T14:36:36.754Z,48.62
2023-04-26T14:39:03.551Z,45.67
2023-04-26T14:41:30.062Z,47.48
2023-04-26T14:43:56.637Z,47.32
2023-04-26T14:46:23.100Z,46.59
2023-04-26T14:48:49.537Z,47.38
2023-04-26T14:51:16.133Z,47.11
2023-04-26T14:53:42.556Z,46.63
2023-04-26T14:56:09.428Z,44.92
2023-04-26T14:58:36.335Z,44.78
2023-04-26T15:01:03.394Z,43.89
2023-04-26T15:03:30.114Z,44.38
2023-04-26T15:05:56.954Z,46.01
2023-04-26T15:08:23.333Z,45.16
2023-04-26T15:10:51.166Z,45.29
2023-04-26T15:13:17.913Z,44.91
2023-04-26T15:15:44.803Z,47.83
2023-04-26T15:18:11.551Z,47.61
2023-04-26T15:20:41.446Z,46.35
2023-04-26T15:23:08.291Z,46.24
2023-04-26T15:25:36.464Z,46.04
2023-04-26T15:28:03.441Z,45.13
2023-04-26T15:30:30.611Z,46.41
2023-04-26T15:32:58.066Z,46.94
2023-04-26T15:35:24.936Z,48.57
2023-04-26T15:37:54.259Z,48.80
2023-04-26T15:40:24.553Z,48.71
2023-04-26T15:42:52.345Z,47.19
2023-04-26T15:45:19.395Z,47.38
2023-04-26T15:47:46.371Z,50.05
2023-04-26T15:50:13.449Z,46.79
2023-04-26T15:52:40.780Z,46.11
2023-04-26T15:55:07.957Z,44.82
2023-04-26T15:57:34.985Z,46.59
2023-04-26T16:00:01.959Z,47.22
2023-04-26T16:02:28.904Z,47.90
2023-04-26T16:04:56.218Z,48.87
2023-04-26T16:07:23.162Z,50.14
2023-04-26T16:09:49.601Z,49.70
2023-04-26T16:12:16.236Z,50.05
2023-04-26T16:14:42.658Z,50.83
2023-04-26T16:17:09.184Z,50.84
2023-04-26T16:19:35.648Z,50.53
2023-04-26T16:22:02.082Z,50.57
2023-04-26T16:24:29.686Z,50.98
2023-04-26T16:26:56.413Z,53.59
2023-04-26T16:29:22.976Z,52.61
2023-04-26T16:31:49.964Z,55.14
2023-04-26T16:34:16.825Z,55.40
2023-04-26T16:36:43.415Z,53.91
2023-04-26T16:39:12.582Z,56.63
2023-04-26T16:41:40.816Z,53.37
2023-04-26T16:44:07.728Z,53.92
2023-04-26T16:46:34.267Z,54.72
2023-04-26T16:49:00.845Z,53.28
2023-04-26T16:51:27.718Z,50.21
2023-04-26T16:53:54.229Z,51.73
2023-04-26T16:56:20.806Z,52.17
2023-04-26T16:58:47.638Z,52.27
2023-04-26T17:01:14.061Z,51.55
2023-04-26T17:03:41.670Z,51.16
2023-04-26T17:06:11.163Z,51.91
2023-04-26T17:08:37.710Z,51.68
2023-04-26T17:11:04.373Z,52.90
2023-04-26T17:13:33.200Z,52.87
2023-04-26T17:15:59.734Z,52.31
2023-04-26T17:18:26.637Z,54.49
2023-04-26T17:20:56.557Z,53.02
2023-04-26T17:23:23.212Z,53.52
2023-04-26T17:25:49.657Z,53.55
2023-04-26T17:28:16.599Z,55.32
2023-04-26T17:30:43.470Z,55.89
2023-04-26T17:33:10.098Z,56.25
2023-04-26T17:35:36.513Z,56.55
2023-04-26T17:38:03.050Z,56.77
2023-04-26T17:40:30.030Z,55.84
2023-04-26T17:42:56.414Z,57.15
2023-04-26T17:45:23.413Z,58.64
2023-04-26T17:47:49.884Z,58.46
2023-04-26T17:50:18.059Z,55.65
2023-04-26T17:52:44.427Z,54.12
2023-04-26T17:55:11.214Z,55.83
2023-04-26T17:57:37.710Z,57.06
2023-04-26T18:00:06.694Z,59.42
2023-04-26T18:02:33.483Z,58.67
2023-04-26T18:05:00.792Z,62.60
2023-04-26T18:07:27.198Z,69.24
2023-04-26T18:09:53.759Z,65.93
2023-04-26T18:12:20.168Z,64.63
2023-04-26T18:14:46.805Z,63.53
2023-04-26T18:17:14.954Z,66.19
2023-04-26T18:19:41.958Z,69.70
2023-04-26T18:22:08.727Z,74.71
2023-04-26T18:24:35.567Z,73.36
2023-04-26T18:27:02.660Z,76.44
2023-04-26T18:29:29.761Z,71.13
2023-04-26T18:31:56.706Z,78.72
2023-04-26T18:34:23.704Z,83.80
2023-04-26T18:36:50.497Z,92.85
2023-04-26T18:39:17.028Z,100.00
2023-04-26T18:41:43.728Z,100.00
2023-04-26T18:44:16.142Z,100.00
2023-04-26T18:46:43.383Z,100.00
2023-04-26T18:49:10.669Z,100.00
2023-04-26T18:51:37.141Z,100.00
2023-04-26T18:54:04.529Z,100.00
2023-04-26T18:56:31.522Z,100.00
2023-04-26T18:58:58.277Z,100.00
2023-04-26T19:01:25.083Z,100.00
2023-04-26T19:03:51.788Z,100.00
2023-04-26T19:06:18.349Z,100.00
2023-04-26T19:08:45.213Z,100.00
2023-04-26T19:11:12.381Z,100.00
2023-04-26T19:13:40.303Z,100.00
2023-04-26T19:16:08.206Z,100.00
2023-04-26T19:18:40.341Z,100.00
2023-04-26T19:21:08.171Z,100.00
2023-04-26T19:23:35.151Z,100.00
2023-04-26T19:26:03.818Z,100.00
2023-04-26T19:28:31.329Z,100.00
2023-04-26T19:30:58.309Z,100.00
2023-04-26T19:33:26.430Z,100.00
2023-04-26T19:35:53.344Z,100.00
2023-04-26T19:38:19.888Z,100.00
2023-04-26T19:40:46.276Z,100.00
2023-04-26T19:43:12.898Z,100.00
2023-04-26T19:45:40.842Z,100.00
2023-04-26T19:48:17.019Z,100.00
2023-04-26T19:50:45.735Z,100.00
2023-04-26T19:53:14.562Z,100.00
2023-04-26T19:55:42.326Z,100.00
2023-04-26T19:58:12.888Z,100.00
2023-04-26T20:00:40.255Z,100.00
2023-04-26T20:03:07.123Z,100.00
2023-04-26T20:05:34.131Z,100.00
2023-04-26T20:08:01.386Z,100.00
2023-04-26T20:10:32.470Z,100.00
2023-04-26T20:13:00.204Z,100.00
2023-04-26T20:15:27.830Z,100.00
2023-04-26T20:17:54.450Z,100.00
2023-04-26T20:20:21.582Z,100.00
2023-04-26T20:22:48.040Z,100.00
2023-04-26T20:25:14.542Z,100.00
2023-04-26T20:27:41.177Z,100.00
2023-04-26T20:30:08.383Z,100.00
2023-04-26T20:32:35.376Z,100.00
2023-04-26T20:35:05.105Z,100.00
2023-04-26T20:37:31.936Z,100.00
2023-04-26T20:39:58.384Z,100.00
2023-04-26T20:42:25.390Z,100.00
2023-04-26T20:44:52.191Z,100.00
2023-04-26T20:47:19.110Z,100.00
2023-04-26T20:49:45.573Z,100.00
2023-04-26T20:52:13.168Z,100.00
2023-04-26T20:54:39.657Z,100.00
2023-04-26T20:57:06.631Z,100.00
2023-04-26T20:59:33.133Z,100.00
2023-04-26T21:01:59.830Z,100.00
2023-04-26T21:04:26.405Z,100.00
2023-04-26T21:06:53.329Z,100.00
2023-04-26T21:09:20.078Z,100.00
2023-04-26T21:11:46.505Z,100.00
2023-04-26T21:14:13.690Z,100.00
2023-04-26T21:16:40.503Z,100.00
2023-04-26T21:19:08.375Z,100.00
2023-04-26T21:21:35.414Z,100.00
2023-04-26T21:24:03.205Z,100.00
2023-04-26T21:26:30.511Z,100.00
2023-04-26T21:28:57.143Z,100.00
2023-04-26T21:31:23.941Z,100.00
2023-04-26T21:33:50.737Z,100.00
2023-04-26T21:36:17.601Z,100.00
2023-04-26T21:38:44.189Z,100.00
2023-04-26T21:41:10.877Z,100.00
2023-04-26T21:43:37.321Z,100.00
2023-04-26T21:46:04.078Z,100.00
2023-04-26T21:48:31.020Z,100.00
2023-04-26T21:50:57.517Z,100.00
2023-04-26T21:53:24.205Z,100.00
2023-04-26T21:55:54.042Z,100.00
2023-04-26T21:58:21.544Z,100.00
2023-04-26T22:00:49.080Z,100.00
2023-04-26T22:03:16.286Z,100.00
2023-04-26T22:05:43.152Z,100.00
2023-04-26T22:08:09.984Z,100.00
2023-04-26T22:10:36.719Z,100.00
2023-04-26T22:13:03.444Z,100.00
2023-04-26T22:15:30.101Z,100.00
2023-04-26T22:17:56.675Z,100.00
2023-04-26T22:20:23.379Z,100.00
2023-04-26T22:22:49.858Z,100.00
2023-04-26T22:25:16.639Z,100.00
2023-04-26T22:27:43.470Z,100.00
2023-04-26T22:30:24.122Z,100.00
2023-04-26T22:32:55.040Z,100.00
2023-04-26T22:35:22.193Z,100.00
2023-04-26T22:37:49.996Z,100.00
2023-04-26T22:40:16.708Z,100.00
2023-04-26T22:42:43.632Z,100.00
2023-04-26T22:45:11.696Z,100.00
2023-04-26T22:47:38.907Z,100.00
2023-04-26T22:50:07.816Z,100.00
2023-04-26T22:52:35.034Z,100.00
2023-04-26T22:55:01.892Z,100.00
2023-04-26T22:57:29.354Z,100.00
2023-04-26T22:59:56.333Z,100.00
2023-04-26T23:02:23.767Z,100.00
2023-04-26T23:04:50.485Z,100.00
2023-04-26T23:07:17.035Z,100.00
2023-04-26T23:09:43.751Z,100.00
2023-04-26T23:12:10.556Z,100.00
2023-04-26T23:14:37.644Z,100.00
2023-04-26T23:17:04.613Z,100.00
2023-04-26T23:19:31.442Z,100.00
2023-04-26T23:21:57.850Z,100.00
2023-04-26T23:24:24.490Z,100.00
2023-04-26T23:26:51.228Z,100.00
2023-04-26T23:29:17.850Z,100.00
2023-04-26T23:31:44.862Z,100.00
2023-04-26T23:34:11.278Z,100.00
2023-04-26T23:36:38.213Z,100.00
2023-04-26T23:39:04.709Z,100.00
2023-04-26T23:41:31.285Z,100.00
2023-04-26T23:43:57.747Z,100.00
2023-04-26T23:46:24.250Z,100.00
2023-04-26T23:48:51.330Z,100.00
2023-04-26T23:51:18.254Z,100.00
2023-04-26T23:53:44.949Z,100.00
2023-04-26T23:56:12.068Z,100.00
2023-04-26T23:58:38.622Z,100.00
